Time;durP1;ratioP1;P1;durP2;ratioP2;P2;SDS_P1;SDS_P2;PMS_P1;PMS_P2;Temp;Humidity;BMP_temperature;BMP_pressure;BME280_temperature;BME280_humidity;BME280_pressure;Samples;Min_cycle;Max_cycle;Signal;HPM_P1;HPM_P2
2020/12/02 00:00:18;;;;;;;14.98;8.13;;;;;;;15.50;63.81;155194.03;1725167;82;21239;-63
2020/12/02 00:03:10;;;;;;;12.10;6.80;;;;;;;15.58;63.46;155215.09;1733722;81;21930;-63
2020/12/02 00:05:49;;;;;;;14.95;7.50;;;;;;;15.58;65.57;155215.09;1728509;82;21294;-63
2020/12/02 00:08:31;;;;;;;13.88;7.53;;;;;;;15.71;62.47;155249.33;1731527;82;21254;-62
2020/12/02 00:11:08;;;;;;;13.48;7.25;;;;;;;15.65;64.15;155233.50;1728272;82;21196;-64
2020/12/02 00:13:48;;;;;;;12.73;6.58;;;;;;;15.74;62.96;155257.19;1731559;82;21223;-63
2020/12/02 00:16:24;;;;;;;14.65;6.92;;;;;;;15.67;63.89;155238.78;1728770;82;21294;-63
2020/12/02 00:18:57;;;;;;;15.08;7.17;;;;;;;15.68;62.40;155240.13;1730849;82;22132;-63
2020/12/02 00:21:32;;;;;;;12.63;7.37;;;;;;;15.72;63.17;155250.63;1768104;80;21995;-63
2020/12/02 00:24:04;;;;;;;14.93;7.47;;;;;;;15.74;62.41;155257.19;1729992;82;21251;-63
2020/12/02 00:26:36;;;;;;;15.20;7.83;;;;;;;15.77;62.69;155265.11;1769422;81;21469;-63
2020/12/02 00:29:09;;;;;;;16.48;8.23;;;;;;;15.78;62.22;155267.75;1727982;82;21507;-63
2020/12/02 00:31:41;;;;;;;15.78;7.83;;;;;;;15.64;61.63;155230.86;1731287;82;21894;-63
2020/12/02 00:34:13;;;;;;;13.30;7.42;;;;;;;15.70;62.14;155246.69;1728643;81;21455;-63
2020/12/02 00:36:45;;;;;;;15.05;7.95;;;;;;;15.72;63.14;155250.63;1730083;82;21251;-63
2020/12/02 00:39:18;;;;;;;16.62;8.50;;;;;;;15.53;66.96;155201.91;1770432;81;21238;-63
2020/12/02 00:41:50;;;;;;;12.98;6.95;;;;;;;15.57;64.71;155212.45;1727612;82;21342;-63
2020/12/02 00:44:22;;;;;;;16.30;8.28;;;;;;;15.55;66.53;155207.17;1751302;81;21287;-62
2020/12/02 00:46:54;;;;;;;15.93;7.45;;;;;;;15.56;63.15;155209.81;1757072;80;21209;-63
2020/12/02 00:49:27;;;;;;;15.65;8.13;;;;;;;15.68;62.28;155241.42;1740181;80;21242;-62
2020/12/02 00:51:59;;;;;;;15.10;7.53;;;;;;;15.62;63.44;155224.30;1731348;82;21227;-63
2020/12/02 00:54:31;;;;;;;16.90;8.28;;;;;;;15.63;63.12;155226.94;1757635;81;21230;-62
2020/12/02 00:57:04;;;;;;;14.10;7.50;;;;;;;15.60;62.58;155219.03;1754116;81;21257;-63
2020/12/02 00:59:37;;;;;;;16.52;8.10;;;;;;;15.55;62.73;155207.17;1719446;81;22110;-63
2020/12/02 01:02:34;;;;;;;14.95;8.10;;;;;;;15.43;63.41;155174.28;1718270;82;21512;-62
2020/12/02 01:05:09;;;;;;;12.45;6.45;;;;;;;15.46;63.91;155182.14;1734090;81;21230;-63
2020/12/02 01:07:43;;;;;;;14.00;7.28;;;;;;;15.44;65.66;155178.22;1757529;81;22047;-63
2020/12/02 01:10:15;;;;;;;16.93;7.50;;;;;;;15.61;62.85;155223.00;1739624;81;21227;-63
2020/12/02 01:12:49;;;;;;;15.35;8.05;;;;;;;15.57;62.63;155211.11;1731573;82;21294;-63
2020/12/02 01:15:21;;;;;;;12.55;6.58;;;;;;;15.79;61.37;155270.39;1734004;82;21457;-63
2020/12/02 01:18:10;;;;;;;14.95;7.45;;;;;;;15.74;63.44;155257.19;1756721;81;21322;-63
2020/12/02 01:20:42;;;;;;;14.73;7.75;;;;;;;15.78;62.36;155267.75;1734296;81;21190;-62
2020/12/02 01:23:16;;;;;;;14.85;8.30;;;;;;;15.81;61.14;155274.31;1757603;81;21277;-62
2020/12/02 01:25:49;;;;;;;16.85;7.78;;;;;;;15.88;61.33;155294.08;1724386;81;22123;-62
2020/12/02 01:28:28;;;;;;;14.15;7.80;;;;;;;15.94;60.91;155308.56;1730312;82;21248;-63
2020/12/02 01:31:01;;;;;;;15.35;7.65;;;;;;;15.95;61.63;155312.56;1720133;82;21267;-62
2020/12/02 01:33:33;;;;;;;17.02;7.75;;;;;;;15.95;61.69;155311.20;1758695;80;22053;-63
2020/12/02 01:36:05;;;;;;;16.12;7.92;;;;;;;15.88;61.32;155294.08;1757010;81;21250;-62
2020/12/02 01:38:41;;;;;;;16.02;7.53;;;;;;;15.89;61.00;155295.42;1727391;81;22064;-63
2020/12/02 01:41:13;;;;;;;15.60;8.90;;;;;;;15.81;61.23;155275.66;1757403;81;21459;-63
2020/12/02 01:43:46;;;;;;;17.25;8.68;;;;;;;15.75;61.38;155259.83;1758369;81;21479;-63
2020/12/02 01:46:41;;;;;;;19.07;7.60;;;;;;;15.74;62.25;155255.91;1743028;81;21283;-63
2020/12/02 01:49:37;;;;;;;18.17;8.73;;;;;;;15.54;61.45;155204.53;1737967;82;22041;-63
2020/12/02 01:52:46;;;;;;;15.43;8.70;;;;;;;15.55;63.04;155207.17;1724176;82;21479;-63
2020/12/02 01:55:28;;;;;;;15.10;8.75;;;;;;;15.76;61.67;155262.47;1727839;82;21259;-62
2020/12/02 01:58:05;;;;;;;17.10;8.45;;;;;;;15.47;63.05;155186.13;1726091;82;22060;-62
2020/12/02 02:00:37;;;;;;;19.25;7.70;;;;;;;15.51;62.91;155195.33;1726712;82;22066;-63
2020/12/02 02:03:14;;;;;;;15.70;7.67;;;;;;;15.58;62.10;155213.75;1729379;82;21259;-63
2020/12/02 02:06:19;;;;;;;11.05;6.78;;;;;;;15.44;61.67;155178.22;1731685;82;21250;-63
2020/12/02 02:08:51;;;;;;;16.10;7.75;;;;;;;15.53;61.44;155200.61;1702636;82;21246;-62
2020/12/02 02:11:24;;;;;;;13.98;7.15;;;;;;;15.86;60.96;155287.52;1728811;82;21243;-63
2020/12/02 02:14:52;;;;;;;11.33;6.58;;;;;;;15.69;61.29;155244.06;1731276;82;21465;-63
2020/12/02 02:17:25;;;;;;;13.85;7.12;;;;;;;15.68;61.98;155241.42;1727636;82;21223;-63
2020/12/02 02:19:59;;;;;;;12.07;6.37;;;;;;;15.75;61.03;155259.83;1727294;82;21212;-63
2020/12/02 02:22:32;;;;;;;12.70;6.87;;;;;;;16.11;60.12;155354.67;1727018;82;21216;-63
2020/12/02 02:25:04;;;;;;;12.15;6.25;;;;;;;16.11;60.36;155353.38;1729280;82;22098;-63
2020/12/02 02:27:36;;;;;;;15.63;7.22;;;;;;;15.70;69.95;155245.34;1728255;82;21350;-63
2020/12/02 02:30:09;;;;;;;12.03;6.25;;;;;;;15.71;62.58;155249.33;1729307;82;21299;-63
2020/12/02 02:32:41;;;;;;;12.53;5.95;;;;;;;15.86;64.18;155288.81;1711458;82;21242;-63
2020/12/02 02:35:13;;;;;;;14.00;7.08;;;;;;;15.75;61.89;155258.53;1731361;82;22084;-63
2020/12/02 02:37:47;;;;;;;11.53;6.28;;;;;;;15.90;60.42;155299.36;1709763;82;21406;-63
2020/12/02 02:40:19;;;;;;;12.93;6.97;;;;;;;15.99;60.12;155323.06;1728427;82;21235;-63
2020/12/02 02:42:53;;;;;;;10.53;6.35;;;;;;;15.95;60.40;155312.56;1730913;82;21247;-63
2020/12/02 02:45:27;;;;;;;14.63;7.12;;;;;;;15.77;61.86;155263.81;1730171;82;21298;-63
2020/12/02 02:48:06;;;;;;;14.43;7.75;;;;;;;15.82;60.85;155276.95;1727773;82;21438;-63
2020/12/02 02:50:37;;;;;;;15.10;7.87;;;;;;;15.84;60.88;155283.58;1730941;82;22033;-63
2020/12/02 02:53:21;;;;;;;13.62;6.95;;;;;;;15.87;60.52;155291.44;1731021;82;21239;-63
2020/12/02 02:55:55;;;;;;;13.98;7.80;;;;;;;15.81;60.46;155275.66;1729634;81;22016;-63
2020/12/02 02:58:28;;;;;;;17.42;7.87;;;;;;;15.87;60.54;155290.16;1731480;82;21255;-63
2020/12/02 03:01:02;;;;;;;15.93;8.48;;;;;;;15.74;60.88;155255.91;1730936;82;21266;-63
2020/12/02 03:03:34;;;;;;;17.12;7.95;;;;;;;15.87;60.75;155290.16;1731487;82;21250;-63
2020/12/02 03:06:07;;;;;;;19.77;8.70;;;;;;;15.72;61.31;155251.97;1734501;82;21298;-63
2020/12/02 03:08:39;;;;;;;18.80;8.20;;;;;;;15.83;61.06;155280.94;1730894;82;21231;-63
2020/12/02 03:11:14;;;;;;;15.70;8.50;;;;;;;15.34;62.61;155149.25;1731654;82;21247;-63
2020/12/02 03:13:49;;;;;;;19.98;9.53;;;;;;;15.30;62.63;155138.70;1731540;82;21533;-63
2020/12/02 03:16:43;;;;;;;18.90;8.15;;;;;;;15.35;61.02;155153.19;1759297;81;21237;-62
2020/12/02 03:19:23;;;;;;;20.40;10.15;;;;;;;15.41;60.88;155169.00;1760078;81;22038;-63
2020/12/02 03:21:58;;;;;;;19.80;10.60;;;;;;;15.41;61.01;155169.00;1705503;82;21204;-63
2020/12/02 03:24:30;;;;;;;22.37;10.32;;;;;;;15.39;61.54;155165.03;1732376;82;21250;-63
2020/12/02 03:27:02;;;;;;;18.75;10.15;;;;;;;15.35;60.57;155153.19;1731963;82;21305;-63
2020/12/02 03:29:34;;;;;;;20.32;9.53;;;;;;;15.31;61.39;155141.34;1732340;82;21263;-63
2020/12/02 03:32:08;;;;;;;21.20;9.35;;;;;;;15.36;60.81;155154.53;1757611;80;21289;-63
2020/12/02 03:34:40;;;;;;;17.98;9.23;;;;;;;15.25;59.76;155125.56;1757809;81;21229;-63
2020/12/02 03:37:12;;;;;;;22.02;9.88;;;;;;;15.17;60.19;155104.42;1755172;81;21235;-62
2020/12/02 03:39:45;;;;;;;21.55;9.85;;;;;;;15.15;59.60;155099.20;1734055;82;21238;-62
2020/12/02 03:42:17;;;;;;;18.73;9.03;;;;;;;15.11;60.19;155088.66;1731542;82;21249;-62
2020/12/02 03:44:50;;;;;;;20.70;9.65;;;;;;;15.13;60.15;155095.22;1732633;82;21250;-62
2020/12/02 03:47:22;;;;;;;17.32;8.63;;;;;;;15.16;59.93;155103.13;1731602;82;21303;-63
2020/12/02 03:49:55;;;;;;;18.17;8.43;;;;;;;15.17;60.07;155104.42;1724239;83;21235;-63
2020/12/02 03:52:27;;;;;;;25.23;12.60;;;;;;;15.07;59.69;155078.11;1722156;82;21290;-63
2020/12/02 03:55:00;;;;;;;23.35;10.82;;;;;;;14.98;61.08;155055.78;1755472;80;21230;-63
2020/12/02 03:57:32;;;;;;;19.37;9.83;;;;;;;15.04;62.25;155070.25;1719273;82;22099;-63
2020/12/02 04:00:09;;;;;;;22.00;9.80;;;;;;;15.19;59.95;155111.03;1741500;81;21224;-63
2020/12/02 04:02:42;;;;;;;19.23;9.43;;;;;;;15.21;60.31;155114.97;1733720;82;21294;-62
2020/12/02 04:05:14;;;;;;;21.12;10.75;;;;;;;15.38;59.70;155162.44;1734142;82;21235;-63
2020/12/02 04:07:47;;;;;;;18.40;8.78;;;;;;;15.29;59.77;155137.41;1734540;82;21258;-63
2020/12/02 04:10:19;;;;;;;20.80;10.58;;;;;;;15.36;59.55;155154.53;1728584;82;21573;-63
2020/12/02 04:12:51;;;;;;;20.23;8.95;;;;;;;15.34;59.60;155149.25;1730543;82;21232;-63
2020/12/02 04:15:25;;;;;;;22.77;10.98;;;;;;;14.99;59.82;155057.06;1729630;82;21279;-63
2020/12/02 04:17:58;;;;;;;22.93;10.70;;;;;;;15.00;59.96;155059.70;1728008;82;21247;-63
2020/12/02 04:20:30;;;;;;;22.17;10.05;;;;;;;14.98;59.62;155054.44;1727578;81;21319;-63
2020/12/02 04:23:02;;;;;;;29.12;11.70;;;;;;;14.89;59.76;155030.75;1729368;82;21232;-62
2020/12/02 04:25:35;;;;;;;30.05;13.48;;;;;;;14.94;59.75;155045.22;1728745;82;21401;-61
2020/12/02 04:28:07;;;;;;;26.97;11.95;;;;;;;15.01;60.03;155062.34;1731548;82;21316;-61
2020/12/02 04:30:40;;;;;;;25.30;10.55;;;;;;;15.04;59.87;155070.25;1725494;82;21231;-61
2020/12/02 04:33:13;;;;;;;24.72;11.78;;;;;;;15.07;59.58;155078.11;1736868;82;21247;-61
2020/12/02 04:35:46;;;;;;;21.23;9.55;;;;;;;15.07;59.80;155078.11;1727872;81;21238;-60
2020/12/02 04:38:18;;;;;;;24.82;9.85;;;;;;;15.12;59.76;155091.30;1726874;81;21484;-62
2020/12/02 04:40:50;;;;;;;20.52;9.83;;;;;;;15.42;58.96;155171.66;1726328;81;21318;-60
2020/12/02 04:43:35;;;;;;;25.90;11.60;;;;;;;15.40;58.76;155167.66;1731001;82;21925;-61
2020/12/02 04:46:18;;;;;;;22.05;10.10;;;;;;;15.35;57.92;155153.19;1727855;82;21243;-61
2020/12/02 04:48:54;;;;;;;23.62;10.13;;;;;;;15.38;58.62;155161.09;1727755;82;21254;-61
2020/12/02 04:51:28;;;;;;;21.05;10.03;;;;;;;15.40;58.49;155166.38;1729280;82;22025;-64
2020/12/02 04:54:00;;;;;;;24.15;11.80;;;;;;;15.38;58.77;155162.44;1730071;82;21466;-64
2020/12/02 04:56:33;;;;;;;24.47;10.60;;;;;;;15.27;58.06;155132.14;1727349;81;22099;-64
2020/12/02 04:59:06;;;;;;;20.75;10.28;;;;;;;15.32;58.30;155143.97;1706693;82;21246;-64
2020/12/02 05:01:53;;;;;;;21.93;10.72;;;;;;;15.30;58.63;155138.70;1729408;81;21322;-61
2020/12/02 05:04:29;;;;;;;18.20;8.60;;;;;;;15.27;59.55;155132.14;1724141;82;21498;-61
2020/12/02 05:07:17;;;;;;;19.12;9.78;;;;;;;15.26;58.71;155128.20;1727180;81;21313;-71
2020/12/02 05:10:00;;;;;;;16.70;8.48;;;;;;;15.27;59.64;155132.14;1727114;81;21925;-72
2020/12/02 05:12:41;;;;;;;18.52;9.08;;;;;;;15.14;59.96;155096.56;1728369;81;21442;-70
2020/12/02 05:15:27;;;;;;;15.70;7.75;;;;;;;15.07;59.47;155079.45;1716279;82;22070;-62
2020/12/02 05:18:16;;;;;;;19.07;9.65;;;;;;;15.02;59.44;155064.97;1722925;81;22076;-63
2020/12/02 05:21:19;;;;;;;15.55;7.95;;;;;;;15.20;60.57;155112.34;1730865;82;21239;-62
2020/12/02 05:24:17;;;;;;;22.10;8.78;;;;;;;15.16;59.55;155101.84;1711379;82;21924;-67
2020/12/02 05:26:51;;;;;;;24.23;9.00;;;;;;;15.28;59.27;155133.48;1711525;81;21233;-63
2020/12/02 05:29:46;;;;;;;17.77;9.13;;;;;;;15.41;58.97;155170.30;1741101;81;21244;-63
2020/12/02 05:32:25;;;;;;;17.70;8.50;;;;;;;15.39;59.70;155163.73;1726046;82;21297;-63
2020/12/02 05:34:57;;;;;;;24.57;8.55;;;;;;;15.25;59.44;155126.86;1715187;82;21320;-64
2020/12/02 05:37:43;;;;;;;20.23;9.60;;;;;;;15.23;60.53;155121.53;1738459;81;21221;-63
2020/12/02 05:40:16;;;;;;;20.77;9.18;;;;;;;15.35;59.20;155153.19;1730606;81;21208;-63
2020/12/02 05:43:00;;;;;;;18.98;8.60;;;;;;;15.98;58.43;155320.41;1701046;82;21489;-62
2020/12/02 05:45:43;;;;;;;18.23;9.03;;;;;;;15.84;58.89;155283.58;1700830;83;21262;-63
2020/12/02 05:48:30;;;;;;;14.40;7.15;;;;;;;15.93;58.18;155305.94;1720011;83;21247;-63
2020/12/02 05:51:02;;;;;;;16.25;8.50;;;;;;;15.99;58.05;155321.77;1717837;83;21226;-64
2020/12/02 05:53:55;;;;;;;16.73;8.55;;;;;;;15.72;59.25;155250.63;1716249;81;21213;-67
2020/12/02 05:56:28;;;;;;;18.85;7.72;;;;;;;15.41;58.61;155169.00;1728819;81;21507;-62
2020/12/02 05:59:08;;;;;;;14.87;7.63;;;;;;;15.41;58.56;155170.30;1732435;81;21261;-71
2020/12/02 06:01:40;;;;;;;15.83;7.75;;;;;;;15.42;58.56;155172.94;1698306;82;22223;-61
2020/12/02 06:04:25;;;;;;;17.85;8.88;;;;;;;15.41;58.59;155169.00;1748789;80;21246;-63
2020/12/02 06:07:08;;;;;;;15.88;7.90;;;;;;;15.36;59.94;155154.53;1744926;81;22089;-64
2020/12/02 06:09:44;;;;;;;20.37;9.13;;;;;;;15.49;59.05;155190.06;1738074;81;21271;-62
2020/12/02 06:12:24;;;;;;;17.45;7.87;;;;;;;15.33;59.29;155147.95;1735259;82;22100;-63
2020/12/02 06:14:58;;;;;;;17.95;7.58;;;;;;;15.35;59.23;155151.89;1736176;82;21249;-63
2020/12/02 06:17:32;;;;;;;17.40;8.83;;;;;;;15.18;59.95;155108.41;1705888;82;21230;-62
2020/12/02 06:20:04;;;;;;;18.52;7.97;;;;;;;15.23;59.74;155120.25;1731319;79;22115;-62
2020/12/02 06:22:52;;;;;;;17.62;8.85;;;;;;;15.57;58.84;155212.45;1780032;79;22055;-62
2020/12/02 06:25:48;;;;;;;22.48;9.90;;;;;;;15.59;58.64;155217.73;1756761;81;21487;-63
2020/12/02 06:28:31;;;;;;;20.00;9.85;;;;;;;15.60;58.64;155220.36;1793176;79;21618;-62
2020/12/02 06:31:23;;;;;;;17.50;9.23;;;;;;;15.43;58.73;155175.58;1781935;79;21285;-63
2020/12/02 06:33:56;;;;;;;20.95;11.35;;;;;;;15.35;59.70;155151.89;1790184;79;21215;-63
2020/12/02 06:36:35;;;;;;;20.62;9.90;;;;;;;15.38;59.01;155161.09;1794384;79;21228;-63
2020/12/02 06:39:15;;;;;;;19.98;9.55;;;;;;;15.67;59.35;155237.48;1774598;79;21242;-63
2020/12/02 06:41:47;;;;;;;16.40;8.80;;;;;;;15.65;58.86;155233.50;1804592;79;21458;-61
2020/12/02 06:44:36;;;;;;;17.75;8.68;;;;;;;15.71;58.35;155249.33;1802024;79;21462;-61
2020/12/02 06:47:23;;;;;;;15.05;7.58;;;;;;;15.73;57.82;155254.61;1800097;79;21377;-63
2020/12/02 06:50:02;;;;;;;21.77;8.55;;;;;;;15.66;58.72;155234.84;1761782;80;21263;-63
2020/12/02 06:52:38;;;;;;;17.40;9.00;;;;;;;15.70;59.57;155245.34;1747052;81;21247;-63
2020/12/02 06:55:24;;;;;;;18.23;8.45;;;;;;;15.73;59.07;155254.61;1739113;81;21489;-61
2020/12/02 06:58:03;;;;;;;18.82;9.90;;;;;;;15.73;59.38;155253.27;1767095;80;22007;-61
2020/12/02 07:00:46;;;;;;;17.40;8.88;;;;;;;15.80;59.08;155273.03;1767624;80;21251;-61
2020/12/02 07:03:28;;;;;;;19.37;8.70;;;;;;;15.73;58.98;155254.61;1775318;80;21250;-61
2020/12/02 07:06:25;;;;;;;16.40;9.75;;;;;;;15.69;58.16;155244.06;1755800;80;21231;-62
2020/12/02 07:09:11;;;;;;;23.52;9.20;;;;;;;15.69;58.02;155244.06;1763409;80;21538;-61
2020/12/02 07:11:55;;;;;;;34.67;14.10;;;;;;;15.81;58.09;155275.66;1771564;80;21239;-61
2020/12/02 07:14:42;;;;;;;27.35;12.07;;;;;;;15.90;58.07;155298.06;1766798;80;21493;-61
2020/12/02 07:17:16;;;;;;;20.05;9.55;;;;;;;15.92;58.33;155304.64;1766059;80;21235;-61
2020/12/02 07:19:48;;;;;;;21.75;9.83;;;;;;;16.03;58.59;155333.61;1758992;80;21510;-61
2020/12/02 07:22:26;;;;;;;31.95;9.23;;;;;;;16.07;58.07;155342.83;1766536;80;21216;-61
2020/12/02 07:25:04;;;;;;;19.07;9.30;;;;;;;16.09;57.89;155348.09;1734348;80;21252;-62
2020/12/02 07:27:44;;;;;;;19.03;8.50;;;;;;;16.06;58.06;155341.53;1767613;80;21306;-62
2020/12/02 07:30:34;;;;;;;16.20;8.05;;;;;;;16.05;57.82;155338.89;1743089;82;22109;-61
2020/12/02 07:33:22;;;;;;;18.07;8.33;;;;;;;16.13;57.71;155359.95;1739217;82;21253;-61
2020/12/02 07:36:08;;;;;;;17.87;8.33;;;;;;;16.16;57.69;155367.88;1768189;80;21516;-62
2020/12/02 07:38:45;;;;;;;21.23;9.13;;;;;;;16.20;57.71;155378.42;1741537;81;21201;-62
2020/12/02 07:41:18;;;;;;;20.43;9.05;;;;;;;16.28;57.79;155400.78;1771388;80;21288;-62
2020/12/02 07:43:51;;;;;;;20.37;9.20;;;;;;;16.26;57.98;155395.50;1737875;81;21295;-62
2020/12/02 07:46:23;;;;;;;20.20;9.70;;;;;;;16.42;58.09;155436.44;1769565;80;21229;-63
2020/12/02 07:48:58;;;;;;;18.98;9.73;;;;;;;16.56;59.27;155473.30;1748098;81;21502;-62
2020/12/02 07:51:34;;;;;;;19.17;9.53;;;;;;;16.61;57.17;155487.78;1733829;82;21244;-62
2020/12/02 07:54:22;;;;;;;21.55;10.50;;;;;;;16.50;57.41;155458.80;1718838;81;21485;-62
2020/12/02 07:56:55;;;;;;;25.12;11.33;;;;;;;16.51;57.34;155460.16;1744099;80;21268;-62
2020/12/02 07:59:30;;;;;;;22.55;10.68;;;;;;;16.13;57.81;155359.95;1751494;81;21235;-62
2020/12/02 08:02:10;;;;;;;23.32;9.73;;;;;;;16.12;58.02;155357.31;1744792;81;22046;-62
2020/12/02 08:04:53;;;;;;;18.87;9.55;;;;;;;15.84;58.58;155283.58;1752489;81;21305;-62
2020/12/02 08:07:28;;;;;;;20.95;9.28;;;;;;;15.95;58.65;155311.20;1747080;81;21985;-62
2020/12/02 08:10:01;;;;;;;20.77;10.25;;;;;;;16.02;59.02;155329.69;1755310;81;21436;-62
2020/12/02 08:12:33;;;;;;;22.98;10.00;;;;;;;15.99;58.71;155323.06;1759946;81;21249;-63
2020/12/02 08:15:11;;;;;;;19.30;9.15;;;;;;;16.09;58.66;155349.39;1752304;81;22076;-63
2020/12/02 08:18:05;;;;;;;16.57;8.88;;;;;;;16.44;58.03;155443.02;1727101;81;21519;-63
2020/12/02 08:20:38;;;;;;;18.48;8.98;;;;;;;16.51;57.75;155460.16;1666359;85;21596;-63
2020/12/02 08:23:27;;;;;;;18.60;8.68;;;;;;;16.60;57.57;155485.20;1658970;85;21279;-63
2020/12/02 08:26:07;;;;;;;17.37;8.95;;;;;;;16.33;58.18;155414.03;1707890;81;21252;-63
2020/12/02 08:28:40;;;;;;;20.27;9.20;;;;;;;16.28;58.69;155400.78;1759587;81;21308;-63
2020/12/02 08:31:30;;;;;;;18.98;9.93;;;;;;;16.33;58.17;155414.03;1756796;81;21263;-63
2020/12/02 08:34:23;;;;;;;22.05;9.15;;;;;;;16.32;58.10;155411.39;1749678;81;21218;-63
2020/12/02 08:37:23;;;;;;;19.25;9.45;;;;;;;16.27;58.70;155396.84;1760493;81;21260;-62
2020/12/02 08:39:56;;;;;;;27.95;12.93;;;;;;;16.21;58.24;155379.72;1752331;81;21934;-62
2020/12/02 08:42:31;;;;;;;18.73;8.30;;;;;;;16.29;58.19;155402.13;1756138;81;21440;-62
2020/12/02 08:45:22;;;;;;;20.52;9.85;;;;;;;16.28;57.94;155399.48;1741815;81;21967;-62
2020/12/02 08:47:57;;;;;;;24.67;10.35;;;;;;;16.31;57.89;155407.45;1777501;80;21515;-62
2020/12/02 08:50:31;;;;;;;24.27;10.75;;;;;;;16.15;57.74;155365.22;1753666;81;21242;-62
2020/12/02 08:53:03;;;;;;;24.85;11.48;;;;;;;16.15;58.32;155363.88;1754654;81;21231;-62
2020/12/02 08:55:35;;;;;;;29.87;14.43;;;;;;;16.33;58.33;155412.69;1727716;81;21484;-62
2020/12/02 08:58:08;;;;;;;28.15;14.40;;;;;;;16.44;57.92;155443.02;1724350;82;21383;-62
2020/12/02 09:00:40;;;;;;;24.65;13.75;;;;;;;16.52;58.20;155464.08;1742816;81;21457;-63
2020/12/02 09:03:13;;;;;;;25.50;12.58;;;;;;;16.86;57.90;155553.70;1744801;80;21212;-63
2020/12/02 09:05:45;;;;;;;22.67;11.50;;;;;;;17.14;57.62;155626.20;1736871;80;21234;-63
2020/12/02 09:08:19;;;;;;;24.23;12.65;;;;;;;17.23;57.80;155652.62;1726920;82;21245;-63
2020/12/02 09:10:52;;;;;;;21.80;10.25;;;;;;;17.24;57.52;155655.22;1731071;82;21234;-63
2020/12/02 09:13:24;;;;;;;24.10;11.43;;;;;;;17.30;57.78;155671.11;1727199;82;21563;-62
2020/12/02 09:15:57;;;;;;;22.75;10.78;;;;;;;17.35;57.88;155684.31;1721862;82;21257;-62
2020/12/02 09:18:30;;;;;;;22.85;10.40;;;;;;;17.46;57.53;155713.33;1731175;82;21401;-63
2020/12/02 09:21:03;;;;;;;23.07;10.25;;;;;;;17.38;57.20;155690.91;1731483;81;21241;-63
2020/12/02 09:23:37;;;;;;;20.85;9.25;;;;;;;17.36;57.55;155686.91;1726343;82;21297;-62
2020/12/02 09:26:10;;;;;;;20.65;10.05;;;;;;;17.22;56.44;155649.98;1738354;81;21463;-62
2020/12/02 09:28:42;;;;;;;21.55;9.28;;;;;;;17.11;56.30;155619.63;1727778;80;21279;-62
2020/12/02 09:31:15;;;;;;;22.42;10.05;;;;;;;17.05;56.52;155602.48;1736198;82;21293;-62
2020/12/02 09:33:48;;;;;;;28.92;16.35;;;;;;;16.99;57.24;155586.69;1723792;82;21226;-62
2020/12/02 09:36:21;;;;;;;23.50;12.95;;;;;;;17.08;57.49;155611.70;1722799;81;21278;-62
2020/12/02 09:38:54;;;;;;;20.60;9.98;;;;;;;17.21;57.42;155647.34;1736381;81;21236;-62
2020/12/02 09:41:58;;;;;;;20.37;10.15;;;;;;;17.19;57.45;155642.06;1733786;81;21883;-62
2020/12/02 09:44:42;;;;;;;33.45;19.45;;;;;;;17.24;56.68;155653.91;1727967;82;22055;-61
2020/12/02 09:47:16;;;;;;;24.92;12.80;;;;;;;17.25;56.90;155657.84;1712294;82;21236;-61
2020/12/02 09:49:49;;;;;;;23.18;10.95;;;;;;;17.14;57.15;155627.55;1719358;82;21247;-63
2020/12/02 09:52:32;;;;;;;25.75;15.00;;;;;;;17.20;57.44;155644.69;1720107;82;21242;-61
2020/12/02 09:55:13;;;;;;;46.25;27.65;;;;;;;17.23;56.81;155651.28;1743084;81;22009;-62
2020/12/02 09:57:45;;;;;;;32.38;19.20;;;;;;;17.13;56.88;155624.91;1759279;79;21311;-62
2020/12/02 10:00:19;;;;;;;37.48;20.90;;;;;;;17.02;56.86;155595.91;1765749;79;21246;-64
2020/12/02 10:03:16;;;;;;;26.23;14.80;;;;;;;17.01;56.97;155591.97;1763580;80;21224;-63
2020/12/02 10:06:09;;;;;;;40.08;24.27;;;;;;;16.89;56.24;155560.33;1765370;80;21961;-62
2020/12/02 10:09:20;;;;;;;28.47;16.23;;;;;;;16.77;56.18;155529.98;1770226;80;21254;-62
2020/12/02 10:12:05;;;;;;;39.03;20.05;;;;;;;16.69;56.32;155507.56;1736115;81;22188;-62
2020/12/02 10:15:11;;;;;;;28.10;16.30;;;;;;;16.61;55.54;155487.78;1763163;79;21212;-62
2020/12/02 10:18:07;;;;;;;44.88;24.50;;;;;;;16.39;55.86;155428.52;1741168;80;21472;-62
2020/12/02 11:34:39;;;;;;;26.57;13.55;;;;;;;14.31;85.97;154878.16;1804076;77;28167;-57
2020/12/02 11:37:16;;;;;;;26.45;12.45;;;;;;;14.28;83.80;154868.95;1761923;79;21386;-56
2020/12/02 11:40:08;;;;;;;25.05;11.28;;;;;;;14.50;80.77;154928.13;1792778;79;21363;-59
2020/12/02 11:43:00;;;;;;;19.77;10.75;;;;;;;14.55;79.00;154941.30;1794338;78;21283;-58
2020/12/02 11:45:37;;;;;;;20.80;10.93;;;;;;;14.68;77.07;154975.50;1759568;80;21804;-56
2020/12/02 11:48:41;;;;;;;23.27;11.88;;;;;;;14.72;76.45;154986.00;1759462;80;21811;-58
2020/12/02 11:51:29;;;;;;;23.98;13.95;;;;;;;14.82;75.56;155012.31;1762948;80;21202;-56
2020/12/02 11:54:10;;;;;;;46.33;34.33;;;;;;;14.48;76.01;154922.84;1765627;79;21182;-56
2020/12/02 11:56:48;;;;;;;29.65;18.32;;;;;;;14.51;75.13;154932.09;1768599;80;21827;-56
2020/12/02 11:59:28;;;;;;;24.72;13.58;;;;;;;14.55;74.85;154942.59;1770337;80;21221;-56
2020/12/02 12:02:26;;;;;;;23.57;12.20;;;;;;;14.57;75.02;154946.56;1759991;80;21395;-58
2020/12/02 12:05:22;;;;;;;24.95;11.65;;;;;;;14.72;74.21;154987.34;1763530;80;21181;-57
2020/12/02 12:08:09;;;;;;;24.37;11.88;;;;;;;14.55;73.23;154941.30;1763287;80;21344;-56
2020/12/02 12:11:02;;;;;;;25.55;12.70;;;;;;;14.74;73.25;154992.61;1762216;79;21375;-57
2020/12/02 12:13:57;;;;;;;23.35;11.33;;;;;;;14.91;71.97;155037.31;1765737;80;21341;-58
2020/12/02 12:16:49;;;;;;;19.52;11.33;;;;;;;14.71;71.03;154984.70;1764412;79;21356;-56
2020/12/02 12:19:33;;;;;;;21.35;11.12;;;;;;;14.69;71.37;154978.14;1759872;80;21816;-57
2020/12/02 12:22:31;;;;;;;24.87;12.40;;;;;;;14.50;71.67;154928.13;1752485;79;21744;-57
2020/12/02 12:25:14;;;;;;;39.45;20.88;;;;;;;14.80;70.64;155007.08;1730884;80;21363;-55
2020/12/02 12:27:46;;;;;;;101.10;47.73;;;;;;;14.98;70.22;155054.44;1743714;81;21368;-57
2020/12/02 12:30:19;;;;;;;30.92;16.70;;;;;;;14.96;69.82;155049.16;1731962;81;21182;-57
2020/12/02 12:33:30;;;;;;;36.53;19.12;;;;;;;14.91;68.82;155037.31;1731362;81;21394;-57
2020/12/02 12:36:08;;;;;;;36.40;20.60;;;;;;;14.90;69.38;155033.39;1728788;82;21383;-58
2020/12/02 12:38:57;;;;;;;24.82;14.35;;;;;;;14.91;68.97;155037.31;1732514;82;21182;-58
2020/12/02 12:41:34;;;;;;;32.73;21.33;;;;;;;14.87;69.21;155025.48;1731081;80;21320;-57
2020/12/02 12:44:18;;;;;;;30.80;21.50;;;;;;;14.89;69.15;155030.75;1732831;80;21676;-58
2020/12/02 12:47:15;;;;;;;24.37;15.98;;;;;;;14.98;69.18;155055.78;1728459;82;21240;-58
2020/12/02 12:49:49;;;;;;;23.30;12.28;;;;;;;15.05;68.70;155074.19;1724364;82;21170;-57
2020/12/02 12:52:25;;;;;;;22.10;11.90;;;;;;;15.10;68.44;155086.02;1727011;82;21221;-60
2020/12/02 12:54:57;;;;;;;24.72;11.40;;;;;;;15.01;68.32;155062.34;1728190;82;21177;-59
2020/12/02 12:57:31;;;;;;;29.30;13.18;;;;;;;14.92;68.57;155038.66;1757330;80;21231;-57
2020/12/02 13:00:07;;;;;;;23.83;12.05;;;;;;;14.83;68.86;155016.28;1743692;81;21319;-57
2020/12/02 13:02:40;;;;;;;23.02;12.70;;;;;;;15.03;68.84;155068.91;1764194;80;21326;-58
2020/12/02 13:05:14;;;;;;;24.25;11.08;;;;;;;15.05;68.91;155072.83;1759801;80;21219;-57
2020/12/02 13:07:51;;;;;;;22.40;12.55;;;;;;;14.99;68.21;155057.06;1757628;80;21727;-57
2020/12/02 13:10:49;;;;;;;27.05;16.87;;;;;;;14.85;68.52;155020.20;1756195;79;21184;-57
2020/12/02 13:13:44;;;;;;;40.33;25.97;;;;;;;14.57;68.85;154947.86;1756562;80;21227;-58
2020/12/02 13:16:31;;;;;;;19.55;11.22;;;;;;;14.45;69.88;154915.00;1756611;79;21243;-57
2020/12/02 13:19:36;;;;;;;29.65;17.02;;;;;;;14.50;70.09;154929.45;1755645;80;21206;-56
2020/12/02 13:22:13;;;;;;;24.77;14.20;;;;;;;14.67;69.46;154972.88;1753901;79;21262;-57